createdAt,value
2023-02-08T00:03:58.207Z,102371.50
2023-02-08T00:09:01.543Z,102368.78
2023-02-08T00:14:02.885Z,102366.91
2023-02-08T00:19:04.153Z,102369.66
2023-02-08T00:24:06.876Z,102364.50
2023-02-08T00:29:08.332Z,102364.69
2023-02-08T00:34:09.687Z,102362.91
2023-02-08T00:39:11.032Z,102361.28
2023-02-08T00:44:12.969Z,102365.66
2023-02-08T00:49:14.390Z,102364.81
2023-02-08T00:54:20.684Z,102364.00
2023-02-08T00:59:22.142Z,102363.28
2023-02-08T01:04:23.427Z,102365.94
2023-02-08T01:09:25.009Z,102367.53
2023-02-08T01:14:26.974Z,102364.03
2023-02-08T01:19:28.284Z,102366.53
2023-02-08T01:24:30.097Z,102357.13
2023-02-08T01:29:31.496Z,102364.06
2023-02-08T01:34:32.760Z,102350.22
2023-02-08T01:39:34.664Z,102346.75
2023-02-08T01:45:13.271Z,102359.94
2023-02-08T01:50:17.926Z,102351.22
2023-02-08T01:55:25.600Z,102352.19
2023-02-08T02:00:27.432Z,102355.66
2023-02-08T02:05:34.627Z,102352.13
2023-02-08T02:10:38.216Z,102358.25
2023-02-08T02:15:40.222Z,102352.19
2023-02-08T02:21:00.846Z,102354.00
2023-02-08T02:26:43.873Z,102359.22
2023-02-08T02:31:57.584Z,102360.97
2023-02-08T02:37:30.138Z,102344.47
2023-02-08T02:43:00.683Z,102349.72
2023-02-08T02:48:20.617Z,102360.19
2023-02-08T02:53:37.568Z,102344.31
2023-02-08T02:58:40.966Z,102335.72
2023-02-08T03:03:42.317Z,102336.59
2023-02-08T03:08:52.692Z,102347.97
2023-02-08T03:13:53.976Z,102338.50
2023-02-08T03:19:18.437Z,102349.03
2023-02-08T03:24:51.210Z,102338.63
2023-02-08T03:30:14.884Z,102336.94
2023-02-08T03:35:18.985Z,102340.41
2023-02-08T03:40:36.823Z,102331.72
2023-02-08T03:45:47.272Z,102349.16
2023-02-08T03:50:51.775Z,102354.41
2023-02-08T03:56:00.009Z,102342.22
2023-02-08T04:01:08.612Z,102353.63
2023-02-08T04:06:10.039Z,102347.56
2023-02-08T04:11:11.796Z,102355.50
2023-02-08T04:16:13.826Z,102338.94
2023-02-08T04:21:15.186Z,102349.41
2023-02-08T04:26:16.541Z,102338.00
2023-02-08T04:31:18.038Z,102354.63
2023-02-08T04:36:19.402Z,102348.47
2023-02-08T04:41:20.939Z,102351.09
2023-02-08T04:46:22.650Z,102345.03
2023-02-08T04:51:24.116Z,102338.94
2023-02-08T04:56:25.471Z,102338.03
2023-02-08T05:01:26.806Z,102338.91
2023-02-08T05:06:28.092Z,102330.16
2023-02-08T05:11:29.534Z,102331.84
2023-02-08T05:16:31.076Z,102320.56
2023-02-08T05:21:32.708Z,102328.44
2023-02-08T05:26:34.024Z,102337.19
2023-02-08T05:31:35.529Z,102332.81
2023-02-08T05:36:36.987Z,102331.06
2023-02-08T05:41:38.442Z,102332.81
2023-02-08T05:46:39.864Z,102327.59
2023-02-08T05:51:41.272Z,102337.25
2023-02-08T05:56:42.978Z,102335.44
2023-02-08T06:01:44.357Z,102338.94
2023-02-08T06:06:45.741Z,102340.72
2023-02-08T06:11:47.297Z,102346.81
2023-02-08T06:16:48.777Z,102340.75
2023-02-08T06:21:50.190Z,102359.94
2023-02-08T06:26:51.650Z,102351.25
2023-02-08T06:31:53.412Z,102325.13
2023-02-08T06:36:54.804Z,102363.47
2023-02-08T06:41:56.179Z,102375.69
2023-02-08T06:46:57.559Z,102373.09
2023-02-08T06:52:01.044Z,102376.56
2023-02-08T06:57:02.429Z,102365.22
2023-02-08T07:02:03.959Z,102370.44
2023-02-08T07:07:05.713Z,102364.31
2023-02-08T07:12:08.897Z,102352.97
2023-02-08T07:17:12.741Z,102361.69
2023-02-08T07:22:14.026Z,102370.38
2023-02-08T07:27:15.345Z,102365.94
2023-02-08T07:32:16.956Z,102365.88
2023-02-08T07:37:18.352Z,102371.03
2023-02-08T07:42:19.779Z,102363.03
2023-02-08T07:47:21.149Z,102362.97
2023-02-08T07:52:22.488Z,102360.22
2023-02-08T07:57:23.838Z,102356.56
2023-02-08T08:02:25.161Z,102336.47
2023-02-08T08:07:26.478Z,102352.06
2023-02-08T08:12:28.012Z,102353.72
2023-02-08T08:17:30.256Z,102362.28
2023-02-08T08:22:31.773Z,102349.81
2023-02-08T08:27:34.985Z,102344.44
2023-02-08T08:32:38.129Z,102350.38
2023-02-08T08:37:39.510Z,102343.34
2023-02-08T08:42:40.924Z,102347.66
2023-02-08T08:47:42.383Z,102342.44
2023-02-08T08:52:43.825Z,102343.25
2023-02-08T08:57:45.317Z,102344.06
2023-02-08T09:02:46.687Z,102346.34
2023-02-08T09:07:48.181Z,102343.44
2023-02-08T09:12:49.570Z,102339.72
2023-02-08T09:17:51.014Z,102338.53
2023-02-08T09:22:53.622Z,102330.94
2023-02-08T09:27:54.962Z,102338.94
2023-02-08T09:32:56.859Z,102338.19
2023-02-08T09:38:02.201Z,102333.78
2023-02-08T09:43:12.806Z,102330.16
2023-02-08T09:48:22.552Z,102328.94
2023-02-08T09:53:30.602Z,102324.59
2023-02-08T09:58:49.856Z,102337.50
2023-02-08T10:04:28.084Z,102329.97
2023-02-08T10:09:29.727Z,102326.72
2023-02-08T10:15:05.437Z,102325.34
2023-02-08T10:20:25.110Z,102329.28
2023-02-08T10:26:01.057Z,102324.47
2023-02-08T10:31:28.781Z,102318.09
2023-02-08T10:36:35.534Z,102320.06
2023-02-08T10:41:37.428Z,102326.38
2023-02-08T10:46:49.108Z,102307.84
2023-02-08T10:51:50.565Z,102303.63
2023-02-08T10:57:04.804Z,102291.69
2023-02-08T11:02:18.260Z,102280.00
2023-02-08T11:07:21.369Z,102267.09
2023-02-08T11:12:23.506Z,102260.75
2023-02-08T11:17:28.515Z,102258.66
2023-02-08T11:22:31.449Z,102249.47
2023-02-08T11:27:36.128Z,102247.47
2023-02-08T11:32:37.539Z,102244.88
2023-02-08T11:37:46.238Z,102232.59
2023-02-08T11:42:47.933Z,102232.28
2023-02-08T11:47:49.986Z,102213.81
2023-02-08T11:52:57.189Z,102218.13
2023-02-08T11:58:01.968Z,102207.50
2023-02-08T12:03:12.458Z,102207.38
2023-02-08T12:08:36.611Z,102193.31
2023-02-08T12:13:47.133Z,102178.47
2023-02-08T12:19:06.958Z,102185.13
2023-02-08T12:24:27.670Z,102166.84
2023-02-08T12:29:59.406Z,102159.34
2023-02-08T12:35:29.492Z,102167.88
2023-02-08T12:41:00.702Z,102154.22
2023-02-08T12:46:22.247Z,102145.13
2023-02-08T12:51:54.732Z,102129.09
2023-02-08T12:57:02.362Z,102124.44
2023-02-08T13:02:16.301Z,102113.81
2023-02-08T13:07:29.386Z,102100.13
2023-02-08T13:12:36.053Z,102097.56
2023-02-08T13:17:57.705Z,102098.91
2023-02-08T13:23:24.181Z,102085.50
2023-02-08T13:28:27.034Z,102075.44
2023-02-08T13:33:59.180Z,102072.06
2023-02-08T13:39:06.849Z,102068.38
2023-02-08T13:44:19.349Z,102056.72
2023-02-08T13:49:42.547Z,102054.00
2023-02-08T13:54:44.104Z,102037.41
2023-02-08T14:00:22.376Z,102042.22
2023-02-08T14:05:59.654Z,102047.22
2023-02-08T14:11:15.596Z,102041.09
2023-02-08T14:16:32.370Z,102040.28
2023-02-08T14:21:38.258Z,102030.25
2023-02-08T14:26:39.878Z,102032.03
2023-02-08T14:31:44.033Z,102016.47
2023-02-08T14:36:45.636Z,102013.13
2023-02-08T14:41:51.641Z,102003.63
2023-02-08T14:46:53.032Z,101994.09
2023-02-08T14:51:59.718Z,101998.41
2023-02-08T14:57:04.789Z,102004.19
2023-02-08T15:02:15.442Z,101997.88
2023-02-08T15:07:41.869Z,101972.25
2023-02-08T15:12:46.720Z,101981.75
2023-02-08T15:17:51.120Z,101961.34
2023-02-08T15:23:18.014Z,101971.69
2023-02-08T15:28:22.484Z,101973.31
2023-02-08T15:33:24.488Z,101953.91
2023-02-08T15:38:28.406Z,101948.03
2023-02-08T15:43:29.893Z,101952.94
2023-02-08T15:48:33.252Z,101951.28
2023-02-08T15:53:36.434Z,101959.53
2023-02-08T15:58:43.806Z,101939.19
2023-02-08T16:04:00.214Z,101949.56
2023-02-08T16:09:03.274Z,101953.59
2023-02-08T16:14:05.368Z,101961.25
2023-02-08T16:19:22.608Z,101951.91
2023-02-08T16:24:27.742Z,101959.34
2023-02-08T16:29:32.415Z,101949.25
2023-02-08T16:34:37.794Z,101954.19
2023-02-08T16:39:50.506Z,101964.56
2023-02-08T16:44:57.918Z,101953.69
2023-02-08T16:49:59.279Z,101960.06
2023-02-08T16:55:01.374Z,101944.78
2023-02-08T17:00:12.616Z,101965.84
2023-02-08T17:05:14.913Z,101964.59
2023-02-08T17:10:23.356Z,101968.97
2023-02-08T17:15:25.872Z,101969.66
2023-02-08T17:20:30.079Z,101964.84
2023-02-08T17:25:34.094Z,101969.47
2023-02-08T17:30:41.344Z,101965.47
2023-02-08T17:35:43.127Z,101973.75
2023-02-08T17:40:45.531Z,101970.56
2023-02-08T17:45:47.163Z,101968.16
2023-02-08T17:50:50.920Z,101961.09
2023-02-08T17:55:52.396Z,101978.81
2023-02-08T18:00:56.038Z,101976.56
2023-02-08T18:05:58.777Z,101947.50
2023-02-08T18:11:05.103Z,101959.09
2023-02-08T18:16:13.307Z,101939.16
2023-02-08T18:21:17.701Z,101961.03
2023-02-08T18:26:22.033Z,101967.50
2023-02-08T18:31:24.509Z,101952.19
2023-02-08T18:36:25.832Z,101948.97
2023-02-08T18:41:29.612Z,101944.88
2023-02-08T18:46:31.035Z,101958.66
2023-02-08T18:51:32.763Z,101954.63
2023-02-08T18:56:35.156Z,101971.59
2023-02-08T19:01:37.025Z,101963.09
2023-02-08T19:06:38.478Z,101965.81
2023-02-08T19:11:40.216Z,101952.06
2023-02-08T19:16:43.027Z,101959.06
2023-02-08T19:21:44.542Z,101978.13
2023-02-08T19:26:46.515Z,101973.78
2023-02-08T19:31:50.212Z,101978.44
2023-02-08T19:36:54.700Z,101976.97
2023-02-08T19:41:59.224Z,101980.91
2023-02-08T19:47:00.673Z,101935.84
2023-02-08T19:52:02.132Z,101984.50
2023-02-08T19:57:03.964Z,101968.88
2023-02-08T20:02:06.133Z,101980.16
2023-02-08T20:07:08.457Z,101974.88
2023-02-08T20:12:09.831Z,101942.09
2023-02-08T20:17:11.265Z,101964.91
2023-02-08T20:22:12.584Z,101960.66
2023-02-08T20:27:13.950Z,101921.03
2023-02-08T20:32:15.274Z,101954.03
2023-02-08T20:37:20.622Z,101953.31
2023-02-08T20:42:22.493Z,101975.88
2023-02-08T20:47:23.994Z,101963.09
2023-02-08T20:52:25.362Z,101968.66
2023-02-08T20:57:27.022Z,101970.59
2023-02-08T21:02:28.364Z,101976.84
2023-02-08T21:07:29.742Z,101980.59
2023-02-08T21:12:33.279Z,101971.03
2023-02-08T21:17:35.913Z,101958.03
2023-02-08T21:22:37.311Z,101963.94
2023-02-08T21:27:38.836Z,101959.03
2023-02-08T21:32:41.707Z,101951.44
2023-02-08T21:37:43.040Z,101954.09
2023-02-08T21:42:44.543Z,101950.69
2023-02-08T21:47:46.669Z,101948.19
2023-02-08T21:53:06.834Z,101924.91
2023-02-08T21:58:08.250Z,101917.16
2023-02-08T22:03:09.718Z,101912.84
2023-02-08T22:08:12.078Z,101942.25
2023-02-08T22:13:13.419Z,101931.72
2023-02-08T22:18:15.756Z,101914.59
2023-02-08T22:23:17.622Z,101930.38
2023-02-08T22:28:18.980Z,101917.53
2023-02-08T22:33:20.399Z,101902.91
2023-02-08T22:38:23.994Z,101934.00
2023-02-08T22:43:25.305Z,101931.63
2023-02-08T22:48:27.238Z,101931.69
2023-02-08T22:53:28.631Z,101924.81
2023-02-08T22:58:30.021Z,101906.59
2023-02-08T23:03:31.648Z,101919.53
2023-02-08T23:08:33.436Z,101934.13
2023-02-08T23:13:35.416Z,101929.94
2023-02-08T23:18:36.747Z,101933.69
2023-02-08T23:23:38.982Z,101898.16
2023-02-08T23:28:40.345Z,101906.94
2023-02-08T23:33:42.183Z,101923.81
2023-02-08T23:38:43.562Z,101868.53
2023-02-08T23:43:45.751Z,101925.03
2023-02-08T23:48:47.779Z,101919.00
2023-02-08T23:53:50.483Z,101919.03
2023-02-08T23:58:54.946Z,101912.09
